sensor_id;sensor_type;location;lat;lon;timestamp;pressure;altitude;pressure_sealevel;temperature;humidity
76448;BME280;65284;51.040;13.722;2023-06-04T00:01:56;100335.41;;;13.11;49.48
76448;BME280;65284;51.040;13.722;2023-06-04T00:04:25;100339.09;;;12.86;50.24
76448;BME280;65284;51.040;13.722;2023-06-04T00:06:52;100337.75;;;12.49;51.18
76448;BME280;65284;51.040;13.722;2023-06-04T00:09:18;100334.88;;;12.18;51.84
76448;BME280;65284;51.040;13.722;2023-06-04T00:11:45;100329.78;;;12.57;51.06
76448;BME280;65284;51.040;13.722;2023-06-04T00:14:13;100333.94;;;12.76;50.96
76448;BME280;65284;51.040;13.722;2023-06-04T00:16:40;100331.09;;;12.78;50.99
76448;BME280;65284;51.040;13.722;2023-06-04T00:19:07;100338.28;;;12.69;51.10
76448;BME280;65284;51.040;13.722;2023-06-04T00:21:34;100324.59;;;12.80;50.92
76448;BME280;65284;51.040;13.722;2023-06-04T00:24:01;100323.44;;;12.74;51.38
76448;BME280;65284;51.040;13.722;2023-06-04T00:26:28;100323.25;;;12.60;51.45
76448;BME280;65284;51.040;13.722;2023-06-04T00:28:55;100314.13;;;12.70;51.62
76448;BME280;65284;51.040;13.722;2023-06-04T00:31:22;100330.38;;;12.18;52.31
76448;BME280;65284;51.040;13.722;2023-06-04T00:33:48;100325.66;;;11.88;53.32
76448;BME280;65284;51.040;13.722;2023-06-04T00:36:15;100322.41;;;12.26;52.65
76448;BME280;65284;51.040;13.722;2023-06-04T00:38:42;100325.75;;;12.28;52.72
76448;BME280;65284;51.040;13.722;2023-06-04T00:41:08;100321.06;;;12.14;52.92
76448;BME280;65284;51.040;13.722;2023-06-04T00:43:36;100315.75;;;11.80;54.05
76448;BME280;65284;51.040;13.722;2023-06-04T00:46:02;100312.72;;;12.09;53.11
76448;BME280;65284;51.040;13.722;2023-06-04T00:48:29;100316.63;;;11.80;53.62
76448;BME280;65284;51.040;13.722;2023-06-04T00:50:57;100315.88;;;11.62;53.71
76448;BME280;65284;51.040;13.722;2023-06-04T00:53:24;100312.56;;;11.68;53.71
76448;BME280;65284;51.040;13.722;2023-06-04T00:55:51;100321.69;;;11.57;54.20
76448;BME280;65284;51.040;13.722;2023-06-04T00:58:18;100320.53;;;11.68;54.08
76448;BME280;65284;51.040;13.722;2023-06-04T01:00:44;100303.34;;;11.89;53.63
76448;BME280;65284;51.040;13.722;2023-06-04T01:03:14;100319.66;;;11.86;53.79
76448;BME280;65284;51.040;13.722;2023-06-04T01:05:49;100315.22;;;11.68;54.01
76448;BME280;65284;51.040;13.722;2023-06-04T01:08:18;100315.44;;;11.41;55.42
76448;BME280;65284;51.040;13.722;2023-06-04T01:10:51;100316.28;;;11.15;55.92
76448;BME280;65284;51.040;13.722;2023-06-04T01:13:18;100312.84;;;10.97;56.62
76448;BME280;65284;51.040;13.722;2023-06-04T01:15:45;100318.72;;;10.82;57.34
76448;BME280;65284;51.040;13.722;2023-06-04T01:18:21;100311.50;;;10.92;57.41
76448;BME280;65284;51.040;13.722;2023-06-04T01:20:59;100316.69;;;10.76;57.43
76448;BME280;65284;51.040;13.722;2023-06-04T01:23:34;100309.72;;;10.75;57.04
76448;BME280;65284;51.040;13.722;2023-06-04T01:26:05;100307.81;;;10.67;57.87
76448;BME280;65284;51.040;13.722;2023-06-04T01:28:33;100310.19;;;10.53;58.22
76448;BME280;65284;51.040;13.722;2023-06-04T01:31:01;100305.44;;;10.82;57.20
76448;BME280;65284;51.040;13.722;2023-06-04T01:33:28;100307.44;;;10.80;56.97
76448;BME280;65284;51.040;13.722;2023-06-04T01:35:54;100304.16;;;10.86;56.94
76448;BME280;65284;51.040;13.722;2023-06-04T01:38:21;100300.84;;;10.66;57.06
76448;BME280;65284;51.040;13.722;2023-06-04T01:40:47;100310.66;;;10.66;57.15
76448;BME280;65284;51.040;13.722;2023-06-04T01:43:14;100308.47;;;10.87;57.04
76448;BME280;65284;51.040;13.722;2023-06-04T01:45:41;100307.13;;;10.83;56.93
76448;BME280;65284;51.040;13.722;2023-06-04T01:48:07;100304.50;;;10.65;57.32
76448;BME280;65284;51.040;13.722;2023-06-04T01:50:34;100313.00;;;10.69;57.51
76448;BME280;65284;51.040;13.722;2023-06-04T01:53:00;100304.72;;;10.72;57.38
76448;BME280;65284;51.040;13.722;2023-06-04T01:55:27;100313.44;;;10.64;57.42
76448;BME280;65284;51.040;13.722;2023-06-04T01:57:55;100310.75;;;10.38;58.37
76448;BME280;65284;51.040;13.722;2023-06-04T02:00:22;100313.53;;;10.19;59.01
76448;BME280;65284;51.040;13.722;2023-06-04T02:02:48;100303.38;;;10.32;58.43
76448;BME280;65284;51.040;13.722;2023-06-04T02:05:15;100305.78;;;10.08;59.51
76448;BME280;65284;51.040;13.722;2023-06-04T02:07:43;100310.06;;;10.36;58.73
76448;BME280;65284;51.040;13.722;2023-06-04T02:10:12;100309.81;;;9.84;60.03
76448;BME280;65284;51.040;13.722;2023-06-04T02:12:41;100307.38;;;9.73;60.22
76448;BME280;65284;51.040;13.722;2023-06-04T02:15:18;100311.63;;;9.66;60.51
76448;BME280;65284;51.040;13.722;2023-06-04T02:17:45;100312.69;;;10.00;59.79
76448;BME280;65284;51.040;13.722;2023-06-04T02:20:12;100313.28;;;9.94;59.61
76448;BME280;65284;51.040;13.722;2023-06-04T02:22:38;100316.72;;;9.77;60.30
76448;BME280;65284;51.040;13.722;2023-06-04T02:25:05;100319.47;;;9.57;60.48
76448;BME280;65284;51.040;13.722;2023-06-04T02:27:31;100310.84;;;9.55;60.24
76448;BME280;65284;51.040;13.722;2023-06-04T02:29:58;100318.19;;;9.89;59.86
76448;BME280;65284;51.040;13.722;2023-06-04T02:32:25;100321.34;;;9.75;59.70
76448;BME280;65284;51.040;13.722;2023-06-04T02:34:51;100325.13;;;9.72;59.99
76448;BME280;65284;51.040;13.722;2023-06-04T02:37:18;100328.66;;;9.63;60.40
76448;BME280;65284;51.040;13.722;2023-06-04T02:39:45;100321.47;;;10.01;59.21
76448;BME280;65284;51.040;13.722;2023-06-04T02:42:11;100316.56;;;10.24;58.80
76448;BME280;65284;51.040;13.722;2023-06-04T02:44:38;100319.88;;;10.26;58.29
76448;BME280;65284;51.040;13.722;2023-06-04T02:47:04;100324.25;;;9.99;59.66
76448;BME280;65284;51.040;13.722;2023-06-04T02:49:31;100325.75;;;9.84;59.74
76448;BME280;65284;51.040;13.722;2023-06-04T02:51:57;100328.28;;;9.76;60.23
76448;BME280;65284;51.040;13.722;2023-06-04T02:54:24;100332.09;;;9.73;60.58
76448;BME280;65284;51.040;13.722;2023-06-04T02:56:50;100328.69;;;9.53;60.80
76448;BME280;65284;51.040;13.722;2023-06-04T02:59:17;100337.72;;;9.33;61.41
76448;BME280;65284;51.040;13.722;2023-06-04T03:01:44;100332.69;;;9.30;61.58
76448;BME280;65284;51.040;13.722;2023-06-04T03:04:10;100331.47;;;9.52;60.81
76448;BME280;65284;51.040;13.722;2023-06-04T03:06:41;100326.41;;;9.31;61.20
76448;BME280;65284;51.040;13.722;2023-06-04T03:09:11;100332.53;;;9.41;60.92
76448;BME280;65284;51.040;13.722;2023-06-04T03:11:37;100330.94;;;9.48;60.84
76448;BME280;65284;51.040;13.722;2023-06-04T03:14:04;100337.13;;;9.39;61.19
76448;BME280;65284;51.040;13.722;2023-06-04T03:16:30;100330.63;;;9.89;60.04
76448;BME280;65284;51.040;13.722;2023-06-04T03:18:57;100332.59;;;9.49;61.22
76448;BME280;65284;51.040;13.722;2023-06-04T03:21:23;100337.66;;;9.52;61.10
76448;BME280;65284;51.040;13.722;2023-06-04T03:23:51;100336.06;;;9.60;60.81
76448;BME280;65284;51.040;13.722;2023-06-04T03:26:17;100340.19;;;9.72;60.24
76448;BME280;65284;51.040;13.722;2023-06-04T03:28:44;100340.66;;;9.57;60.37
76448;BME280;65284;51.040;13.722;2023-06-04T03:31:10;100340.97;;;9.54;60.51
76448;BME280;65284;51.040;13.722;2023-06-04T03:33:37;100344.56;;;9.26;61.44
76448;BME280;65284;51.040;13.722;2023-06-04T03:36:03;100344.72;;;9.24;61.49
76448;BME280;65284;51.040;13.722;2023-06-04T03:38:30;100351.38;;;9.38;61.18
76448;BME280;65284;51.040;13.722;2023-06-04T03:40:56;100340.19;;;9.44;61.03
76448;BME280;65284;51.040;13.722;2023-06-04T03:43:23;100347.44;;;9.42;61.17
76448;BME280;65284;51.040;13.722;2023-06-04T03:45:49;100339.31;;;9.53;60.77
76448;BME280;65284;51.040;13.722;2023-06-04T03:48:16;100344.41;;;9.27;61.38
76448;BME280;65284;51.040;13.722;2023-06-04T03:50:42;100353.28;;;9.46;61.02
76448;BME280;65284;51.040;13.722;2023-06-04T03:53:09;100348.88;;;9.27;61.45
76448;BME280;65284;51.040;13.722;2023-06-04T03:55:35;100351.94;;;9.32;61.61
76448;BME280;65284;51.040;13.722;2023-06-04T03:58:03;100356.13;;;9.25;61.90
76448;BME280;65284;51.040;13.722;2023-06-04T04:00:29;100358.66;;;9.17;61.81
76448;BME280;65284;51.040;13.722;2023-06-04T04:02:56;100353.06;;;9.29;61.40
76448;BME280;65284;51.040;13.722;2023-06-04T04:05:22;100360.81;;;9.50;61.10
76448;BME280;65284;51.040;13.722;2023-06-04T04:07:49;100359.56;;;9.82;60.58
76448;BME280;65284;51.040;13.722;2023-06-04T04:10:15;100361.50;;;10.08;59.26
76448;BME280;65284;51.040;13.722;2023-06-04T04:12:42;100367.00;;;9.96;59.79
76448;BME280;65284;51.040;13.722;2023-06-04T04:15:08;100362.78;;;10.03;59.69
76448;BME280;65284;51.040;13.722;2023-06-04T04:17:35;100364.06;;;10.27;59.78
76448;BME280;65284;51.040;13.722;2023-06-04T04:20:02;100360.31;;;10.20;59.75
76448;BME280;65284;51.040;13.722;2023-06-04T04:22:31;100369.75;;;10.05;60.23
76448;BME280;65284;51.040;13.722;2023-06-04T04:24:59;100361.03;;;9.94;60.93
76448;BME280;65284;51.040;13.722;2023-06-04T04:27:27;100366.34;;;9.94;60.99
76448;BME280;65284;51.040;13.722;2023-06-04T04:29:56;100356.38;;;9.96;60.86
76448;BME280;65284;51.040;13.722;2023-06-04T04:32:27;100370.13;;;9.92;60.96
76448;BME280;65284;51.040;13.722;2023-06-04T04:34:54;100363.91;;;10.01;60.72
76448;BME280;65284;51.040;13.722;2023-06-04T04:37:21;100361.97;;;10.03;60.71
76448;BME280;65284;51.040;13.722;2023-06-04T04:39:48;100359.63;;;10.18;60.18
76448;BME280;65284;51.040;13.722;2023-06-04T04:42:19;100367.19;;;10.13;60.06
76448;BME280;65284;51.040;13.722;2023-06-04T04:44:45;100360.31;;;10.47;59.06
76448;BME280;65284;51.040;13.722;2023-06-04T04:47:15;100359.63;;;10.18;59.51
76448;BME280;65284;51.040;13.722;2023-06-04T04:49:41;100367.81;;;10.07;60.04
76448;BME280;65284;51.040;13.722;2023-06-04T04:52:08;100354.44;;;10.44;59.18
76448;BME280;65284;51.040;13.722;2023-06-04T04:54:34;100366.97;;;10.52;58.81
76448;BME280;65284;51.040;13.722;2023-06-04T04:57:01;100360.91;;;10.59;58.58
76448;BME280;65284;51.040;13.722;2023-06-04T04:59:39;100367.56;;;10.63;58.54
76448;BME280;65284;51.040;13.722;2023-06-04T05:02:05;100361.72;;;10.78;58.59
76448;BME280;65284;51.040;13.722;2023-06-04T05:04:32;100358.00;;;10.88;57.76
76448;BME280;65284;51.040;13.722;2023-06-04T05:06:59;100367.66;;;10.72;58.28
76448;BME280;65284;51.040;13.722;2023-06-04T05:09:25;100370.44;;;10.88;57.88
76448;BME280;65284;51.040;13.722;2023-06-04T05:11:52;100371.16;;;11.16;57.50
76448;BME280;65284;51.040;13.722;2023-06-04T05:14:18;100374.59;;;11.34;57.41
76448;BME280;65284;51.040;13.722;2023-06-04T05:16:45;100368.19;;;11.19;57.18
76448;BME280;65284;51.040;13.722;2023-06-04T05:19:11;100370.22;;;11.25;57.65
76448;BME280;65284;51.040;13.722;2023-06-04T05:21:38;100368.41;;;11.08;58.00
76448;BME280;65284;51.040;13.722;2023-06-04T05:24:05;100367.34;;;11.45;57.16
76448;BME280;65284;51.040;13.722;2023-06-04T05:26:32;100368.31;;;11.44;57.05
76448;BME280;65284;51.040;13.722;2023-06-04T05:28:59;100369.72;;;11.56;56.75
76448;BME280;65284;51.040;13.722;2023-06-04T05:31:26;100377.56;;;11.31;56.78
76448;BME280;65284;51.040;13.722;2023-06-04T05:33:53;100372.56;;;11.28;57.00
76448;BME280;65284;51.040;13.722;2023-06-04T05:36:19;100381.34;;;11.55;56.40
76448;BME280;65284;51.040;13.722;2023-06-04T05:38:46;100382.31;;;11.46;56.28
76448;BME280;65284;51.040;13.722;2023-06-04T05:41:12;100389.38;;;11.63;56.54
76448;BME280;65284;51.040;13.722;2023-06-04T05:43:39;100389.69;;;11.60;57.12
76448;BME280;65284;51.040;13.722;2023-06-04T05:46:05;100388.94;;;11.76;56.28
76448;BME280;65284;51.040;13.722;2023-06-04T05:48:34;100384.72;;;11.91;56.34
76448;BME280;65284;51.040;13.722;2023-06-04T05:51:00;100377.97;;;12.13;55.28
76448;BME280;65284;51.040;13.722;2023-06-04T05:53:27;100387.88;;;11.95;55.23
76448;BME280;65284;51.040;13.722;2023-06-04T05:55:53;100381.22;;;11.91;55.39
76448;BME280;65284;51.040;13.722;2023-06-04T05:58:20;100388.63;;;12.21;55.02
76448;BME280;65284;51.040;13.722;2023-06-04T06:00:46;100386.94;;;12.04;55.36
76448;BME280;65284;51.040;13.722;2023-06-04T06:03:12;100387.25;;;12.09;54.96
76448;BME280;65284;51.040;13.722;2023-06-04T06:05:43;100393.31;;;12.19;54.09
76448;BME280;65284;51.040;13.722;2023-06-04T06:08:09;100388.63;;;12.13;54.47
76448;BME280;65284;51.040;13.722;2023-06-04T06:10:36;100397.28;;;12.15;54.53
76448;BME280;65284;51.040;13.722;2023-06-04T06:13:02;100392.19;;;11.88;55.15
76448;BME280;65284;51.040;13.722;2023-06-04T06:15:29;100390.91;;;11.74;55.69
76448;BME280;65284;51.040;13.722;2023-06-04T06:17:55;100390.31;;;12.22;54.50
76448;BME280;65284;51.040;13.722;2023-06-04T06:20:22;100394.81;;;12.30;54.39
76448;BME280;65284;51.040;13.722;2023-06-04T06:22:48;100394.94;;;12.12;54.65
76448;BME280;65284;51.040;13.722;2023-06-04T06:25:15;100389.72;;;12.61;54.12
76448;BME280;65284;51.040;13.722;2023-06-04T06:27:42;100387.41;;;12.66;53.50
76448;BME280;65284;51.040;13.722;2023-06-04T06:30:09;100395.38;;;12.74;53.37
76448;BME280;65284;51.040;13.722;2023-06-04T06:32:36;100397.69;;;12.53;53.47
76448;BME280;65284;51.040;13.722;2023-06-04T06:35:02;100400.72;;;12.74;53.82
76448;BME280;65284;51.040;13.722;2023-06-04T06:37:29;100402.41;;;12.75;53.27
76448;BME280;65284;51.040;13.722;2023-06-04T06:39:56;100403.41;;;12.83;52.59
76448;BME280;65284;51.040;13.722;2023-06-04T06:42:23;100405.72;;;12.78;52.02
76448;BME280;65284;51.040;13.722;2023-06-04T06:44:49;100408.06;;;12.89;52.54
76448;BME280;65284;51.040;13.722;2023-06-04T06:47:16;100409.75;;;13.06;52.35
76448;BME280;65284;51.040;13.722;2023-06-04T06:49:43;100398.38;;;13.53;51.55
76448;BME280;65284;51.040;13.722;2023-06-04T06:52:10;100406.38;;;13.61;51.65
76448;BME280;65284;51.040;13.722;2023-06-04T06:54:36;100404.38;;;13.55;50.10
76448;BME280;65284;51.040;13.722;2023-06-04T06:57:03;100408.56;;;13.41;49.00
76448;BME280;65284;51.040;13.722;2023-06-04T06:59:29;100411.09;;;13.43;48.73
76448;BME280;65284;51.040;13.722;2023-06-04T07:01:56;100399.41;;;13.36;48.35
76448;BME280;65284;51.040;13.722;2023-06-04T07:04:22;100403.56;;;13.22;49.12
76448;BME280;65284;51.040;13.722;2023-06-04T07:06:48;100407.41;;;13.44;48.65
76448;BME280;65284;51.040;13.722;2023-06-04T07:09:15;100408.06;;;13.46;49.16
76448;BME280;65284;51.040;13.722;2023-06-04T07:11:42;100413.34;;;13.71;48.43
76448;BME280;65284;51.040;13.722;2023-06-04T07:14:08;100404.19;;;13.65;48.35
76448;BME280;65284;51.040;13.722;2023-06-04T07:16:35;100409.72;;;13.55;48.26
76448;BME280;65284;51.040;13.722;2023-06-04T07:19:02;100408.69;;;13.73;48.09
76448;BME280;65284;51.040;13.722;2023-06-04T07:21:29;100408.69;;;13.64;47.90
76448;BME280;65284;51.040;13.722;2023-06-04T07:23:55;100411.63;;;13.78;47.68
76448;BME280;65284;51.040;13.722;2023-06-04T07:26:22;100404.53;;;14.01;47.31
76448;BME280;65284;51.040;13.722;2023-06-04T07:28:48;100398.81;;;14.13;47.23
76448;BME280;65284;51.040;13.722;2023-06-04T07:31:16;100402.75;;;14.25;46.91
76448;BME280;65284;51.040;13.722;2023-06-04T07:33:43;100403.69;;;14.40;46.36
76448;BME280;65284;51.040;13.722;2023-06-04T07:36:12;100395.97;;;14.53;46.24
76448;BME280;65284;51.040;13.722;2023-06-04T07:38:39;100407.72;;;14.36;46.08
76448;BME280;65284;51.040;13.722;2023-06-04T07:41:05;100405.72;;;14.38;46.73
76448;BME280;65284;51.040;13.722;2023-06-04T07:43:33;100405.72;;;14.38;46.40
76448;BME280;65284;51.040;13.722;2023-06-04T07:46:02;100398.50;;;14.70;45.16
76448;BME280;65284;51.040;13.722;2023-06-04T07:48:28;100404.00;;;14.76;45.43
76448;BME280;65284;51.040;13.722;2023-06-04T07:50:58;100404.47;;;14.80;45.24
76448;BME280;65284;51.040;13.722;2023-06-04T07:53:26;100409.19;;;14.70;45.50
76448;BME280;65284;51.040;13.722;2023-06-04T07:55:54;100400.53;;;14.68;45.81
76448;BME280;65284;51.040;13.722;2023-06-04T07:58:21;100407.81;;;14.82;45.53
76448;BME280;65284;51.040;13.722;2023-06-04T08:00:47;100402.66;;;14.95;45.48
76448;BME280;65284;51.040;13.722;2023-06-04T08:03:14;100411.88;;;15.31;44.57
76448;BME280;65284;51.040;13.722;2023-06-04T08:05:41;100392.41;;;15.22;44.59
76448;BME280;65284;51.040;13.722;2023-06-04T08:08:08;100391.13;;;15.18;45.15
76448;BME280;65284;51.040;13.722;2023-06-04T08:10:34;100396.38;;;15.26;44.89
76448;BME280;65284;51.040;13.722;2023-06-04T08:13:01;100398.69;;;15.29;44.81
76448;BME280;65284;51.040;13.722;2023-06-04T08:15:27;100397.50;;;15.46;44.79
76448;BME280;65284;51.040;13.722;2023-06-04T08:17:54;100395.03;;;15.60;44.44
76448;BME280;65284;51.040;13.722;2023-06-04T08:20:21;100388.38;;;15.56;44.58
76448;BME280;65284;51.040;13.722;2023-06-04T08:22:47;100397.06;;;15.58;44.83
76448;BME280;65284;51.040;13.722;2023-06-04T08:25:14;100385.47;;;15.80;44.17
76448;BME280;65284;51.040;13.722;2023-06-04T08:27:41;100394.31;;;15.96;43.88
76448;BME280;65284;51.040;13.722;2023-06-04T08:30:08;100389.34;;;15.92;44.06
76448;BME280;65284;51.040;13.722;2023-06-04T08:32:35;100378.75;;;16.06;43.76
76448;BME280;65284;51.040;13.722;2023-06-04T08:35:01;100383.75;;;16.09;44.00
76448;BME280;65284;51.040;13.722;2023-06-04T08:37:29;100383.09;;;16.22;43.80
76448;BME280;65284;51.040;13.722;2023-06-04T08:39:55;100380.59;;;16.20;43.18
76448;BME280;65284;51.040;13.722;2023-06-04T08:42:27;100382.03;;;16.37;42.81
76448;BME280;65284;51.040;13.722;2023-06-04T08:44:56;100379.06;;;16.69;42.18
76448;BME280;65284;51.040;13.722;2023-06-04T08:47:28;100379.34;;;16.59;42.28
76448;BME280;65284;51.040;13.722;2023-06-04T08:49:59;100383.00;;;16.73;41.73
76448;BME280;65284;51.040;13.722;2023-06-04T08:52:27;100381.31;;;16.87;40.81
76448;BME280;65284;51.040;13.722;2023-06-04T08:54:54;100382.16;;;16.87;41.35
76448;BME280;65284;51.040;13.722;2023-06-04T08:57:21;100378.75;;;16.78;41.09
76448;BME280;65284;51.040;13.722;2023-06-04T08:59:48;100372.81;;;17.04;40.71
76448;BME280;65284;51.040;13.722;2023-06-04T09:02:14;100376.06;;;16.78;40.56
76448;BME280;65284;51.040;13.722;2023-06-04T09:04:42;100374.28;;;16.86;41.06
76448;BME280;65284;51.040;13.722;2023-06-04T09:07:11;100374.78;;;16.96;41.09
76448;BME280;65284;51.040;13.722;2023-06-04T09:09:39;100371.47;;;16.94;40.84
76448;BME280;65284;51.040;13.722;2023-06-04T09:12:10;100369.53;;;17.09;40.27
76448;BME280;65284;51.040;13.722;2023-06-04T09:14:37;100369.53;;;17.37;38.69
76448;BME280;65284;51.040;13.722;2023-06-04T09:17:04;100368.19;;;17.26;37.60
76448;BME280;65284;51.040;13.722;2023-06-04T09:19:30;100367.41;;;17.33;36.09
76448;BME280;65284;51.040;13.722;2023-06-04T09:21:58;100376.69;;;17.30;36.13
76448;BME280;65284;51.040;13.722;2023-06-04T09:24:38;100375.31;;;17.41;35.65
76448;BME280;65284;51.040;13.722;2023-06-04T09:27:17;100376.84;;;17.50;34.95
76448;BME280;65284;51.040;13.722;2023-06-04T09:29:50;100375.88;;;17.64;35.68
76448;BME280;65284;51.040;13.722;2023-06-04T09:32:24;100382.69;;;17.60;35.21
76448;BME280;65284;51.040;13.722;2023-06-04T09:34:50;100370.03;;;17.82;34.90
76448;BME280;65284;51.040;13.722;2023-06-04T09:37:19;100374.56;;;17.82;34.91
76448;BME280;65284;51.040;13.722;2023-06-04T09:39:55;100376.84;;;17.50;35.42
76448;BME280;65284;51.040;13.722;2023-06-04T09:42:22;100371.94;;;17.60;34.63
76448;BME280;65284;51.040;13.722;2023-06-04T09:44:49;100366.50;;;17.54;35.14
76448;BME280;65284;51.040;13.722;2023-06-04T09:47:15;100362.44;;;17.58;35.26
76448;BME280;65284;51.040;13.722;2023-06-04T09:49:45;100356.47;;;18.04;34.58
76448;BME280;65284;51.040;13.722;2023-06-04T09:52:13;100357.22;;;17.84;34.98
76448;BME280;65284;51.040;13.722;2023-06-04T09:54:40;100359.03;;;18.32;34.41
76448;BME280;65284;51.040;13.722;2023-06-04T09:57:15;100356.09;;;18.13;34.42
76448;BME280;65284;51.040;13.722;2023-06-04T09:59:49;100353.59;;;18.12;34.80
76448;BME280;65284;51.040;13.722;2023-06-04T10:02:20;100358.81;;;18.27;35.09
76448;BME280;65284;51.040;13.722;2023-06-04T10:04:54;100355.31;;;18.33;33.77
76448;BME280;65284;51.040;13.722;2023-06-04T10:07:26;100362.75;;;18.31;33.38
76448;BME280;65284;51.040;13.722;2023-06-04T10:09:53;100363.56;;;18.25;33.00
76448;BME280;65284;51.040;13.722;2023-06-04T10:12:31;100351.78;;;18.26;33.61
76448;BME280;65284;51.040;13.722;2023-06-04T10:15:07;100366.72;;;18.41;32.83
76448;BME280;65284;51.040;13.722;2023-06-04T10:17:36;100352.84;;;18.38;32.61
76448;BME280;65284;51.040;13.722;2023-06-04T10:20:04;100351.81;;;18.39;33.00
76448;BME280;65284;51.040;13.722;2023-06-04T10:22:32;100341.69;;;18.54;32.51
76448;BME280;65284;51.040;13.722;2023-06-04T10:24:59;100344.78;;;18.45;33.20
76448;BME280;65284;51.040;13.722;2023-06-04T10:27:26;100354.94;;;18.49;33.14
76448;BME280;65284;51.040;13.722;2023-06-04T10:29:53;100354.94;;;18.56;32.98
76448;BME280;65284;51.040;13.722;2023-06-04T10:32:20;100350.41;;;18.56;32.90
76448;BME280;65284;51.040;13.722;2023-06-04T10:34:46;100358.34;;;18.84;32.86
76448;BME280;65284;51.040;13.722;2023-06-04T10:37:23;100357.03;;;18.67;32.69
76448;BME280;65284;51.040;13.722;2023-06-04T10:39:54;100351.69;;;18.74;32.96
76448;BME280;65284;51.040;13.722;2023-06-04T10:42:22;100357.88;;;18.81;33.24
76448;BME280;65284;51.040;13.722;2023-06-04T10:44:51;100351.50;;;18.82;32.47
76448;BME280;65284;51.040;13.722;2023-06-04T10:49:54;100351.66;;;18.60;33.01
76448;BME280;65284;51.040;13.722;2023-06-04T10:52:21;100348.81;;;18.75;33.18
76448;BME280;65284;51.040;13.722;2023-06-04T10:54:48;100351.69;;;18.87;33.21
76448;BME280;65284;51.040;13.722;2023-06-04T10:57:16;100356.69;;;18.97;33.41
76448;BME280;65284;51.040;13.722;2023-06-04T11:00:00;100347.97;;;19.01;32.85
76448;BME280;65284;51.040;13.722;2023-06-04T11:02:27;100348.59;;;18.90;33.08
76448;BME280;65284;51.040;13.722;2023-06-04T11:05:03;100348.16;;;18.86;33.41
76448;BME280;65284;51.040;13.722;2023-06-04T11:07:43;100345.91;;;18.90;32.96
76448;BME280;65284;51.040;13.722;2023-06-04T11:10:14;100346.72;;;18.84;33.18
76448;BME280;65284;51.040;13.722;2023-06-04T11:12:45;100339.25;;;18.73;33.21
76448;BME280;65284;51.040;13.722;2023-06-04T11:15:13;100343.84;;;18.79;33.55
76448;BME280;65284;51.040;13.722;2023-06-04T11:17:53;100339.06;;;18.94;32.76
76448;BME280;65284;51.040;13.722;2023-06-04T11:20:22;100344.25;;;19.09;33.28
76448;BME280;65284;51.040;13.722;2023-06-04T11:22:53;100343.84;;;19.05;33.09
76448;BME280;65284;51.040;13.722;2023-06-04T11:25:20;100348.56;;;19.30;32.69
76448;BME280;65284;51.040;13.722;2023-06-04T11:27:49;100338.44;;;19.12;32.65
76448;BME280;65284;51.040;13.722;2023-06-04T11:30:16;100346.31;;;19.07;33.04
76448;BME280;65284;51.040;13.722;2023-06-04T11:32:42;100337.63;;;19.12;33.33
76448;BME280;65284;51.040;13.722;2023-06-04T11:35:09;100331.38;;;19.04;33.30
76448;BME280;65284;51.040;13.722;2023-06-04T11:37:38;100335.13;;;19.10;33.16
76448;BME280;65284;51.040;13.722;2023-06-04T11:40:18;100334.66;;;19.46;32.93
76448;BME280;65284;51.040;13.722;2023-06-04T11:42:48;100326.38;;;19.41;33.10
76448;BME280;65284;51.040;13.722;2023-06-04T11:45:20;100337.34;;;19.46;33.66
76448;BME280;65284;51.040;13.722;2023-06-04T11:47:53;100339.63;;;19.49;33.16
76448;BME280;65284;51.040;13.722;2023-06-04T11:50:21;100338.78;;;19.55;32.80
76448;BME280;65284;51.040;13.722;2023-06-04T11:52:49;100337.91;;;19.55;32.94
76448;BME280;65284;51.040;13.722;2023-06-04T11:55:16;100329.28;;;19.46;33.29
76448;BME280;65284;51.040;13.722;2023-06-04T11:57:49;100334.00;;;19.51;33.74
76448;BME280;65284;51.040;13.722;2023-06-04T12:00:16;100330.88;;;19.61;32.95
76448;BME280;65284;51.040;13.722;2023-06-04T12:02:55;100332.97;;;19.59;32.98
76448;BME280;65284;51.040;13.722;2023-06-04T12:05:29;100322.34;;;19.64;33.50
76448;BME280;65284;51.040;13.722;2023-06-04T12:08:07;100327.53;;;19.72;33.44
76448;BME280;65284;51.040;13.722;2023-06-04T12:10:40;100326.31;;;19.68;33.16
76448;BME280;65284;51.040;13.722;2023-06-04T12:13:07;100330.00;;;19.80;32.65
76448;BME280;65284;51.040;13.722;2023-06-04T12:15:33;100325.81;;;19.91;33.33
76448;BME280;65284;51.040;13.722;2023-06-04T12:18:00;100324.94;;;20.04;33.16
76448;BME280;65284;51.040;13.722;2023-06-04T12:20:37;100318.72;;;19.96;33.60
76448;BME280;65284;51.040;13.722;2023-06-04T12:23:05;100329.88;;;20.07;33.07
76448;BME280;65284;51.040;13.722;2023-06-04T12:25:32;100322.81;;;20.12;33.11
76448;BME280;65284;51.040;13.722;2023-06-04T12:27:59;100329.66;;;20.15;33.09
76448;BME280;65284;51.040;13.722;2023-06-04T12:30:39;100331.66;;;20.26;32.95
76448;BME280;65284;51.040;13.722;2023-06-04T12:33:07;100326.44;;;20.31;31.86
76448;BME280;65284;51.040;13.722;2023-06-04T12:35:34;100331.22;;;20.29;32.48
76448;BME280;65284;51.040;13.722;2023-06-04T12:38:04;100325.22;;;20.27;32.57
76448;BME280;65284;51.040;13.722;2023-06-04T12:40:31;100323.44;;;20.14;31.86
76448;BME280;65284;51.040;13.722;2023-06-04T12:42:58;100326.56;;;20.05;31.50
76448;BME280;65284;51.040;13.722;2023-06-04T12:45:24;100320.75;;;20.08;31.73
76448;BME280;65284;51.040;13.722;2023-06-04T12:47:51;100308.53;;;20.37;31.44